createdAt,value
2023-03-27T00:00:10.887Z,5.45
2023-03-27T00:02:41.736Z,5.42
2023-03-27T00:05:10.560Z,5.38
2023-03-27T00:07:41.507Z,5.32
2023-03-27T00:10:10.936Z,5.25
2023-03-27T00:12:40.241Z,5.12
2023-03-27T00:15:09.769Z,5.04
2023-03-27T00:17:38.134Z,5.02
2023-03-27T00:20:08.887Z,5.02
2023-03-27T00:22:37.142Z,5.01
2023-03-27T00:25:05.988Z,5.05
2023-03-27T00:27:34.281Z,5.04
2023-03-27T00:30:05.155Z,5.06
2023-03-27T00:32:34.195Z,5.04
2023-03-27T00:35:02.470Z,5.04
2023-03-27T00:37:32.461Z,5.06
2023-03-27T00:40:00.658Z,5.07
2023-03-27T00:42:29.755Z,5.09
2023-03-27T00:44:58.007Z,5.10
2023-03-27T00:47:33.021Z,5.13
2023-03-27T00:50:04.972Z,5.17
2023-03-27T00:52:37.172Z,5.16
2023-03-27T00:55:10.861Z,5.16
2023-03-27T00:57:39.995Z,5.12
2023-03-27T01:00:14.309Z,5.11
2023-03-27T01:02:44.430Z,5.15
2023-03-27T01:05:13.489Z,5.16
2023-03-27T01:08:00.519Z,5.15
2023-03-27T01:10:41.667Z,5.17
2023-03-27T01:13:22.487Z,5.18
2023-03-27T01:15:55.974Z,5.19
2023-03-27T01:18:37.302Z,5.20
2023-03-27T01:21:49.214Z,5.13
2023-03-27T01:24:52.099Z,5.18
2023-03-27T01:27:25.840Z,5.13
2023-03-27T01:30:03.970Z,5.16
2023-03-27T01:33:00.696Z,5.22
2023-03-27T01:36:05.108Z,5.21
2023-03-27T01:39:17.691Z,5.17
2023-03-27T01:41:54.962Z,5.13
2023-03-27T01:44:42.950Z,5.10
2023-03-27T01:47:19.752Z,5.18
2023-03-27T01:49:55.631Z,5.21
2023-03-27T01:52:30.448Z,5.22
2023-03-27T01:55:05.085Z,5.23
2023-03-27T01:57:49.722Z,5.17
2023-03-27T02:00:22.873Z,5.13
2023-03-27T02:02:55.968Z,5.13
2023-03-27T02:05:30.267Z,5.11
2023-03-27T02:08:04.761Z,5.15
2023-03-27T02:10:41.677Z,5.12
2023-03-27T02:13:19.841Z,5.15
2023-03-27T02:15:50.583Z,5.13
2023-03-27T02:18:27.512Z,5.12
2023-03-27T02:20:56.037Z,5.09
2023-03-27T02:23:24.369Z,5.00
2023-03-27T02:25:55.379Z,5.06
2023-03-27T02:28:57.267Z,5.03
2023-03-27T02:31:40.004Z,5.05
2023-03-27T02:34:49.295Z,5.08
2023-03-27T02:37:32.096Z,5.07
2023-03-27T02:40:40.023Z,5.07
2023-03-27T02:43:35.626Z,5.13
2023-03-27T02:46:15.963Z,5.10
2023-03-27T02:48:47.426Z,5.06
2023-03-27T02:51:20.686Z,5.10
2023-03-27T02:53:54.139Z,5.06
2023-03-27T02:56:26.201Z,5.09
2023-03-27T02:59:01.080Z,5.07
2023-03-27T03:01:35.122Z,5.03
2023-03-27T03:04:19.301Z,5.04
2023-03-27T03:07:07.163Z,5.05
2023-03-27T03:09:41.127Z,5.11
2023-03-27T03:12:10.770Z,5.12
2023-03-27T03:14:45.390Z,5.07
2023-03-27T03:17:14.711Z,5.09
2023-03-27T03:19:43.134Z,5.04
2023-03-27T03:22:11.841Z,5.04
2023-03-27T03:24:43.814Z,5.04
2023-03-27T03:27:16.015Z,5.10
2023-03-27T03:29:53.695Z,5.08
2023-03-27T03:32:27.496Z,4.81
2023-03-27T03:34:57.077Z,4.54
2023-03-27T03:37:28.651Z,4.39
2023-03-27T03:39:59.054Z,4.26
2023-03-27T03:42:27.296Z,3.94
2023-03-27T03:44:59.407Z,3.77
2023-03-27T03:47:27.643Z,3.52
2023-03-27T03:49:55.882Z,3.42
2023-03-27T03:52:24.219Z,3.32
2023-03-27T03:54:52.784Z,3.25
2023-03-27T03:57:21.797Z,3.15
2023-03-27T04:00:08.523Z,3.11
2023-03-27T04:02:53.575Z,3.08
2023-03-27T04:05:22.662Z,3.02
2023-03-27T04:07:55.832Z,2.97
2023-03-27T04:10:38.152Z,2.85
2023-03-27T04:13:10.986Z,2.79
2023-03-27T04:15:50.091Z,2.73
2023-03-27T04:18:19.822Z,2.81
2023-03-27T04:20:50.331Z,2.74
2023-03-27T04:23:20.934Z,2.62
2023-03-27T04:25:49.720Z,2.56
2023-03-27T04:28:25.814Z,2.60
2023-03-27T04:31:10.943Z,2.56
2023-03-27T04:34:05.089Z,2.53
2023-03-27T04:37:01.477Z,2.62
2023-03-27T04:39:31.287Z,2.67
2023-03-27T04:41:59.555Z,2.80
2023-03-27T04:44:29.077Z,2.83
2023-03-27T04:47:01.833Z,2.62
2023-03-27T04:49:30.756Z,2.56
2023-03-27T04:52:03.937Z,2.56
2023-03-27T04:54:32.928Z,2.51
2023-03-27T04:57:03.324Z,2.46
2023-03-27T04:59:32.341Z,2.45
2023-03-27T05:02:21.324Z,2.37
2023-03-27T05:04:58.593Z,2.28
2023-03-27T05:07:32.939Z,2.24
2023-03-27T05:10:03.729Z,2.20
2023-03-27T05:12:34.139Z,2.21
2023-03-27T05:15:06.323Z,2.16
2023-03-27T05:17:44.035Z,2.15
2023-03-27T05:20:14.689Z,2.08
2023-03-27T05:22:44.050Z,2.08
2023-03-27T05:25:24.626Z,2.11
2023-03-27T05:27:54.444Z,2.09
2023-03-27T05:30:25.072Z,2.06
2023-03-27T05:33:07.882Z,2.07
2023-03-27T05:35:37.843Z,2.08
2023-03-27T05:38:06.563Z,2.01
2023-03-27T05:40:37.330Z,1.97
2023-03-27T05:43:06.005Z,1.97
2023-03-27T05:45:35.056Z,1.94
2023-03-27T05:48:04.578Z,1.88
2023-03-27T05:50:39.290Z,1.84
2023-03-27T05:53:16.180Z,1.80
2023-03-27T05:56:05.022Z,1.73
2023-03-27T05:58:42.986Z,1.75
2023-03-27T06:01:11.892Z,1.79
2023-03-27T06:03:40.296Z,1.85
2023-03-27T06:06:18.018Z,1.90
2023-03-27T06:08:47.233Z,1.97
2023-03-27T06:11:16.322Z,1.99
2023-03-27T06:13:48.821Z,2.05
2023-03-27T06:16:21.629Z,2.12
2023-03-27T06:19:04.780Z,2.25
2023-03-27T06:21:34.738Z,2.30
2023-03-27T06:24:04.093Z,2.46
2023-03-27T06:26:32.890Z,2.56
2023-03-27T06:29:08.170Z,2.75
2023-03-27T06:31:41.160Z,2.89
2023-03-27T06:34:15.026Z,3.14
2023-03-27T06:37:05.092Z,3.36
2023-03-27T06:39:40.447Z,3.55
2023-03-27T06:42:09.765Z,3.54
2023-03-27T06:45:09.492Z,3.41
2023-03-27T06:48:12.992Z,3.32
2023-03-27T06:50:50.172Z,3.24
2023-03-27T06:55:52.321Z,3.18
2023-03-27T06:58:21.998Z,3.16
2023-03-27T07:00:51.215Z,3.12
2023-03-27T07:03:21.338Z,3.13
2023-03-27T07:06:02.595Z,3.23
2023-03-27T07:08:50.800Z,3.41
2023-03-27T07:11:19.836Z,3.54
2023-03-27T07:13:56.569Z,3.62
2023-03-27T07:16:29.528Z,3.79
2023-03-27T07:19:01.678Z,3.95
2023-03-27T07:21:32.132Z,4.28
2023-03-27T07:24:02.687Z,4.42
2023-03-27T07:26:36.731Z,4.65
2023-03-27T07:29:12.210Z,4.66
2023-03-27T07:31:55.815Z,4.66
2023-03-27T07:34:48.940Z,4.67
2023-03-27T07:37:23.773Z,4.73
2023-03-27T07:40:14.414Z,4.87
2023-03-27T07:42:50.031Z,5.20
2023-03-27T07:45:23.986Z,5.59
2023-03-27T07:48:05.231Z,5.69
2023-03-27T07:50:33.687Z,5.55
2023-03-27T07:53:02.531Z,5.11
2023-03-27T07:55:32.241Z,4.62
2023-03-27T07:58:07.255Z,3.86
2023-03-27T08:00:38.881Z,3.41
2023-03-27T08:03:14.473Z,3.20
2023-03-27T08:05:58.503Z,3.24
2023-03-27T08:08:29.441Z,3.76
2023-03-27T08:11:02.398Z,4.12
2023-03-27T08:13:35.826Z,4.54
2023-03-27T08:16:07.177Z,4.36
2023-03-27T08:18:36.499Z,4.00
2023-03-27T08:21:08.234Z,3.83
2023-03-27T08:23:37.989Z,3.72
2023-03-27T08:26:26.518Z,3.88
2023-03-27T08:28:59.717Z,4.23
2023-03-27T08:31:31.468Z,4.53
2023-03-27T08:34:02.446Z,4.76
2023-03-27T08:36:46.623Z,4.97
2023-03-27T08:39:16.288Z,5.15
2023-03-27T08:41:58.152Z,5.12
2023-03-27T08:44:37.471Z,5.22
2023-03-27T08:47:16.028Z,5.30
2023-03-27T08:49:57.634Z,5.53
2023-03-27T08:52:52.393Z,5.96
2023-03-27T08:55:34.645Z,5.91
2023-03-27T08:58:21.513Z,5.94
2023-03-27T09:01:02.188Z,6.12
2023-03-27T09:03:38.890Z,6.41
2023-03-27T09:06:12.535Z,6.69
2023-03-27T09:08:56.699Z,6.91
2023-03-27T09:11:37.300Z,7.32
2023-03-27T09:14:15.871Z,7.72
2023-03-27T09:16:49.448Z,7.92
2023-03-27T09:19:42.728Z,8.38
2023-03-27T09:22:19.761Z,8.49
2023-03-27T09:25:04.519Z,7.98
2023-03-27T09:27:35.087Z,7.88
2023-03-27T09:30:24.803Z,8.04
2023-03-27T09:33:03.466Z,8.31
2023-03-27T09:35:33.109Z,7.93
2023-03-27T09:38:07.052Z,7.59
2023-03-27T09:40:44.549Z,7.26
2023-03-27T09:43:18.284Z,7.26
2023-03-27T09:45:50.020Z,7.33
2023-03-27T09:48:29.311Z,7.64
2023-03-27T09:50:58.675Z,7.43
2023-03-27T09:53:33.706Z,7.10
2023-03-27T09:56:16.397Z,7.10
2023-03-27T09:58:57.283Z,7.17
2023-03-27T10:01:34.442Z,7.33
2023-03-27T10:04:16.312Z,7.15
2023-03-27T10:06:48.891Z,6.68
2023-03-27T10:09:28.287Z,6.70
2023-03-27T10:12:04.786Z,7.54
2023-03-27T10:14:36.109Z,8.06
2023-03-27T10:17:06.498Z,8.26
2023-03-27T10:19:38.750Z,8.27
2023-03-27T10:22:24.660Z,8.42
2023-03-27T10:24:54.711Z,8.17
2023-03-27T10:27:43.720Z,8.13
2023-03-27T10:30:41.668Z,8.27
2023-03-27T10:33:36.636Z,8.38
2023-03-27T10:36:28.365Z,8.87
2023-03-27T10:39:02.102Z,9.40
2023-03-27T10:41:42.331Z,9.96
2023-03-27T10:44:17.742Z,9.39
2023-03-27T10:46:53.706Z,8.83
2023-03-27T10:49:33.559Z,7.28
2023-03-27T10:52:15.828Z,6.90
2023-03-27T10:55:22.709Z,6.46
2023-03-27T10:57:56.139Z,6.56
2023-03-27T11:00:36.835Z,6.46
2023-03-27T11:03:14.907Z,5.74
2023-03-27T11:05:48.905Z,5.35
2023-03-27T11:08:33.032Z,5.37
2023-03-27T11:11:08.454Z,5.84
2023-03-27T11:13:44.818Z,6.17
2023-03-27T11:16:17.711Z,6.50
2023-03-27T11:19:33.157Z,7.25
2023-03-27T11:22:28.209Z,7.69
2023-03-27T11:25:03.942Z,7.96
2023-03-27T11:27:37.703Z,8.14
2023-03-27T11:30:24.731Z,8.22
2023-03-27T11:33:09.287Z,8.49
2023-03-27T11:35:40.498Z,8.51
2023-03-27T11:38:39.631Z,8.57
2023-03-27T11:41:14.632Z,8.91
2023-03-27T11:43:44.868Z,9.00
2023-03-27T11:46:45.951Z,8.80
2023-03-27T11:49:26.235Z,8.17
2023-03-27T11:52:06.996Z,8.37
2023-03-27T11:54:51.116Z,9.09
2023-03-27T11:57:28.299Z,9.54
2023-03-27T12:00:25.504Z,10.18
2023-03-27T12:03:28.082Z,10.35
2023-03-27T12:06:07.991Z,10.43
2023-03-27T12:08:55.571Z,9.39
2023-03-27T12:11:27.486Z,8.79
2023-03-27T12:14:40.225Z,8.26
2023-03-27T12:17:21.076Z,8.31
2023-03-27T12:20:26.844Z,9.37
2023-03-27T12:23:16.885Z,9.46
2023-03-27T12:26:18.811Z,9.47
2023-03-27T12:29:22.736Z,9.18
2023-03-27T12:32:16.885Z,9.08
2023-03-27T12:34:54.380Z,9.23
2023-03-27T12:37:31.946Z,9.46
2023-03-27T12:40:08.074Z,9.71
2023-03-27T12:42:44.691Z,9.59
2023-03-27T12:45:19.777Z,9.63
2023-03-27T12:48:18.059Z,10.34
2023-03-27T12:50:54.903Z,10.39
2023-03-27T12:53:49.201Z,9.75
2023-03-27T12:56:32.152Z,9.46
2023-03-27T12:59:01.286Z,9.68
2023-03-27T13:02:30.880Z,9.70
2023-03-27T13:05:27.377Z,9.10
2023-03-27T13:08:21.145Z,8.75
2023-03-27T13:11:10.467Z,8.55
2023-03-27T13:14:16.268Z,8.33
2023-03-27T13:17:07.073Z,9.56
2023-03-27T13:19:46.976Z,9.92
2023-03-27T13:22:36.544Z,10.01
2023-03-27T13:25:26.236Z,9.20
2023-03-27T13:28:22.727Z,9.11
2023-03-27T13:31:01.457Z,9.10
2023-03-27T13:34:13.592Z,10.08
2023-03-27T13:36:47.579Z,10.49
2023-03-27T13:39:24.860Z,10.35
2023-03-27T13:42:06.396Z,10.37
2023-03-27T13:44:51.835Z,10.37
2023-03-27T13:48:05.396Z,9.68
2023-03-27T13:51:06.835Z,9.27
2023-03-27T13:54:01.992Z,9.23
2023-03-27T13:57:00.124Z,9.68
2023-03-27T14:00:10.807Z,10.04
2023-03-27T14:03:12.032Z,8.41
2023-03-27T14:06:20.270Z,8.13
2023-03-27T14:08:59.950Z,8.72
2023-03-27T14:11:53.077Z,9.14
2023-03-27T14:15:10.505Z,9.66
2023-03-27T14:18:00.964Z,9.79
2023-03-27T14:20:31.349Z,9.55
2023-03-27T14:23:06.852Z,9.75
2023-03-27T14:26:01.859Z,9.54
2023-03-27T14:28:35.692Z,8.86
2023-03-27T14:31:08.647Z,8.59
2023-03-27T14:34:02.885Z,8.60
2023-03-27T14:36:35.968Z,8.70
2023-03-27T14:39:17.034Z,8.65
2023-03-27T14:41:55.735Z,9.55
2023-03-27T14:44:25.980Z,9.40
2023-03-27T14:47:04.059Z,8.56
2023-03-27T14:49:40.222Z,8.39
2023-03-27T14:52:18.015Z,10.18
2023-03-27T14:55:18.715Z,11.33
2023-03-27T14:57:54.456Z,9.75
2023-03-27T15:00:35.101Z,10.74
2023-03-27T15:03:11.447Z,11.05
2023-03-27T15:05:58.455Z,11.61
2023-03-27T15:08:37.066Z,11.26
2023-03-27T15:11:22.945Z,9.52
2023-03-27T15:14:01.506Z,8.64
2023-03-27T15:16:36.035Z,8.39
2023-03-27T15:19:12.506Z,8.34
2023-03-27T15:21:51.021Z,7.78
2023-03-27T15:24:24.317Z,7.28
2023-03-27T15:26:54.124Z,7.14
2023-03-27T15:29:32.298Z,6.97
2023-03-27T15:32:08.812Z,7.03
2023-03-27T15:34:47.251Z,6.99
2023-03-27T15:37:19.851Z,8.49
2023-03-27T15:40:07.313Z,8.79
2023-03-27T15:42:47.511Z,9.11
2023-03-27T15:45:17.857Z,9.75
2023-03-27T15:48:01.196Z,8.14
2023-03-27T15:50:31.369Z,7.19
2023-03-27T15:53:01.518Z,6.57
2023-03-27T15:55:36.759Z,6.74
2023-03-27T15:58:20.687Z,7.63
2023-03-27T16:00:52.022Z,8.00
2023-03-27T16:03:23.504Z,8.17
2023-03-27T16:05:56.595Z,8.06
2023-03-27T16:08:30.282Z,7.83
2023-03-27T16:11:00.614Z,7.64
2023-03-27T16:13:34.816Z,7.57
2023-03-27T16:16:05.930Z,7.33
2023-03-27T16:18:36.683Z,7.10
2023-03-27T16:21:13.346Z,7.15
2023-03-27T16:23:42.047Z,6.89
2023-03-27T16:26:16.324Z,6.73
2023-03-27T16:28:44.845Z,6.74
2023-03-27T16:31:15.902Z,6.69
2023-03-27T16:33:45.645Z,6.66
2023-03-27T16:36:17.393Z,7.92
2023-03-27T16:38:46.004Z,7.70
2023-03-27T16:41:15.400Z,6.81
2023-03-27T16:43:44.725Z,6.53
2023-03-27T16:46:18.250Z,6.35
2023-03-27T16:48:46.556Z,6.30
2023-03-27T16:51:16.471Z,6.23
2023-03-27T16:53:44.753Z,6.20
2023-03-27T16:56:13.033Z,6.25
2023-03-27T16:58:41.534Z,6.68
2023-03-27T17:01:10.358Z,6.73
2023-03-27T17:03:38.686Z,6.73
2023-03-27T17:06:09.129Z,6.71
2023-03-27T17:08:39.400Z,6.55
2023-03-27T17:11:10.429Z,6.38
2023-03-27T17:13:41.693Z,6.23
2023-03-27T17:16:11.639Z,6.15
2023-03-27T17:18:39.940Z,6.13
2023-03-27T17:21:08.596Z,5.99
2023-03-27T17:23:38.207Z,5.90
2023-03-27T17:26:07.945Z,5.78
2023-03-27T17:28:37.481Z,5.69
2023-03-27T17:31:06.151Z,5.63
2023-03-27T17:33:35.028Z,5.57
2023-03-27T17:36:08.875Z,5.62
2023-03-27T17:38:39.796Z,5.52
2023-03-27T17:41:08.454Z,5.53
2023-03-27T17:43:37.224Z,5.56
2023-03-27T17:46:05.861Z,5.54
2023-03-27T17:48:34.289Z,5.46
2023-03-27T17:51:08.985Z,5.34
2023-03-27T17:53:40.670Z,5.23
2023-03-27T17:56:09.910Z,5.18
2023-03-27T17:58:38.303Z,5.10
2023-03-27T18:01:16.570Z,5.04
2023-03-27T18:03:45.332Z,4.95
2023-03-27T18:06:14.138Z,4.87
2023-03-27T18:08:44.096Z,4.87
2023-03-27T18:11:14.502Z,4.80
2023-03-27T18:13:43.218Z,4.76
2023-03-27T18:16:12.136Z,4.75
2023-03-27T18:18:40.835Z,4.62
2023-03-27T18:21:09.977Z,4.67
2023-03-27T18:23:45.558Z,4.60
2023-03-27T18:26:16.849Z,4.52
2023-03-27T18:28:45.388Z,4.54
2023-03-27T18:31:14.015Z,4.58
2023-03-27T18:33:42.295Z,4.56
2023-03-27T18:36:11.990Z,4.57
2023-03-27T18:38:41.826Z,4.47
2023-03-27T18:41:10.878Z,4.46
2023-03-27T18:43:40.716Z,4.41
2023-03-27T18:46:10.787Z,4.34
2023-03-27T18:48:39.106Z,4.32
2023-03-27T18:51:07.681Z,4.31
2023-03-27T18:53:36.367Z,4.30
2023-03-27T18:56:05.258Z,4.24
2023-03-27T18:58:33.915Z,4.24
2023-03-27T19:01:08.262Z,4.18
2023-03-27T19:03:37.369Z,4.12
2023-03-27T19:06:07.850Z,4.14
2023-03-27T19:08:38.044Z,4.14
2023-03-27T19:11:07.020Z,4.15
2023-03-27T19:13:54.092Z,4.07
2023-03-27T19:16:35.756Z,4.13
2023-03-27T19:19:23.334Z,4.04
2023-03-27T19:21:54.903Z,3.95
2023-03-27T19:24:36.632Z,3.84
2023-03-27T19:27:05.556Z,3.76
2023-03-27T19:29:34.082Z,3.63
2023-03-27T19:32:03.690Z,3.46
2023-03-27T19:34:42.035Z,3.41
2023-03-27T19:37:11.302Z,3.23
2023-03-27T19:39:39.524Z,3.11
2023-03-27T19:42:07.809Z,3.01
2023-03-27T19:44:39.073Z,2.93
2023-03-27T19:47:09.863Z,2.87
2023-03-27T19:49:38.180Z,2.76
2023-03-27T19:52:32.514Z,2.71
2023-03-27T19:55:00.787Z,2.66
2023-03-27T19:57:29.198Z,2.56
2023-03-27T19:59:57.398Z,2.55
2023-03-27T20:02:27.823Z,2.50
2023-03-27T20:04:57.271Z,2.42
2023-03-27T20:07:25.670Z,2.35
2023-03-27T20:09:53.894Z,2.31
2023-03-27T20:12:24.945Z,2.27
2023-03-27T20:15:02.913Z,2.23
2023-03-27T20:17:37.256Z,2.16
2023-03-27T20:20:07.509Z,2.16
2023-03-27T20:22:43.403Z,2.12
2023-03-27T20:25:18.931Z,2.09
2023-03-27T20:27:47.252Z,2.10
2023-03-27T20:30:15.605Z,2.08
2023-03-27T20:32:45.279Z,2.01
2023-03-27T20:35:23.554Z,2.00
2023-03-27T20:37:57.779Z,1.96
2023-03-27T20:40:32.907Z,1.96
2023-03-27T20:43:06.056Z,1.98
2023-03-27T20:45:34.359Z,1.91
2023-03-27T20:48:04.356Z,1.88
2023-03-27T20:50:35.306Z,1.83
2023-03-27T20:53:04.407Z,1.82
2023-03-27T20:55:39.276Z,1.79
2023-03-27T20:58:14.232Z,1.80
2023-03-27T21:00:43.760Z,1.76
2023-03-27T21:03:13.624Z,1.70
2023-03-27T21:05:41.873Z,1.68
2023-03-27T21:08:10.234Z,1.68
2023-03-27T21:10:38.760Z,1.70
2023-03-27T21:13:07.284Z,1.76
2023-03-27T21:15:36.337Z,1.88
2023-03-27T21:18:04.888Z,1.94
2023-03-27T21:20:35.493Z,2.00
2023-03-27T21:23:03.867Z,1.96
2023-03-27T21:25:32.126Z,1.85
2023-03-27T21:28:05.660Z,1.90
2023-03-27T21:30:46.880Z,1.82
2023-03-27T21:33:17.990Z,1.79
2023-03-27T21:35:49.090Z,1.70
2023-03-27T21:38:18.609Z,1.60
2023-03-27T21:40:47.817Z,1.51
2023-03-27T21:43:16.333Z,1.51
2023-03-27T21:45:46.625Z,1.45
2023-03-27T21:48:15.038Z,1.38
2023-03-27T21:50:43.346Z,1.37
2023-03-27T21:53:13.578Z,1.34
2023-03-27T21:55:42.588Z,1.38
2023-03-27T21:58:11.106Z,1.35
2023-03-27T22:00:39.534Z,1.37
2023-03-27T22:03:07.938Z,1.31
2023-03-27T22:05:37.785Z,1.29
2023-03-27T22:08:06.851Z,1.26
2023-03-27T22:10:37.055Z,1.41
2023-03-27T22:13:05.527Z,1.47
2023-03-27T22:15:33.920Z,1.49
2023-03-27T22:18:02.371Z,1.42
2023-03-27T22:20:30.779Z,1.46
2023-03-27T22:22:59.114Z,1.45
2023-03-27T22:25:27.403Z,1.41
2023-03-27T22:27:56.964Z,1.36
2023-03-27T22:30:25.257Z,1.38
2023-03-27T22:32:53.563Z,1.36
2023-03-27T22:35:21.890Z,1.26
2023-03-27T22:37:50.217Z,1.25
2023-03-27T22:40:18.475Z,1.23
2023-03-27T22:42:46.752Z,1.22
2023-03-27T22:45:16.459Z,1.16
2023-03-27T22:47:44.790Z,1.11
2023-03-27T22:50:13.048Z,1.07
2023-03-27T22:52:41.339Z,1.01
2023-03-27T22:55:10.848Z,1.03
2023-03-27T22:57:39.168Z,1.04
2023-03-27T23:00:09.125Z,1.04
2023-03-27T23:02:38.957Z,1.08
2023-03-27T23:05:07.992Z,1.07
2023-03-27T23:07:36.526Z,1.06
2023-03-27T23:10:05.017Z,1.10
2023-03-27T23:12:33.294Z,1.03
2023-03-27T23:15:01.566Z,1.04
2023-03-27T23:17:29.815Z,0.96
2023-03-27T23:19:59.515Z,1.04
2023-03-27T23:22:27.792Z,1.08
2023-03-27T23:24:56.044Z,1.02
2023-03-27T23:27:24.274Z,0.92
2023-03-27T23:29:52.518Z,0.83
2023-03-27T23:32:20.841Z,0.84
2023-03-27T23:34:49.077Z,0.82
2023-03-27T23:37:18.734Z,0.83
2023-03-27T23:39:47.198Z,0.88
2023-03-27T23:42:15.790Z,0.81
2023-03-27T23:44:44.107Z,0.78
2023-03-27T23:47:12.487Z,0.75
2023-03-27T23:49:41.101Z,0.78
2023-03-27T23:52:09.676Z,0.76
2023-03-27T23:54:39.268Z,0.76
2023-03-27T23:57:07.568Z,0.74
2023-03-27T23:59:38.112Z,0.74
